Time,TemperatureF,DewpointF,PressureIn,WindDirection,WindDirectionDegrees,WindSpeedMPH,WindSpeedGustMPH,Humidity,HourlyPrecipIn,Conditions,Clouds,dailyrainin,SoftwareType,DateUTC
2013-03-31 00:00:00,56.1,51.0,30.09,NNE,22,0.0,2.2,83,0.00,,---,0.00,VWS V14.01,2013-03-31 07:00:00,
2013-03-31 00:10:00,55.9,50.9,30.09,SE,135,0.0,1.3,83,0.00,,---,0.00,VWS V14.01,2013-03-31 07:10:00,
2013-03-31 00:15:00,55.8,51.0,30.09,ENE,68,0.0,0.0,84,0.00,,---,0.00,VWS V14.01,2013-03-31 07:15:00,
2013-03-31 00:24:00,55.6,50.5,30.09,NNW,338,0.0,2.0,83,0.00,,---,0.00,VWS V14.01,2013-03-31 07:24:00,
2013-03-31 00:35:00,55.4,50.7,30.06,North,0,0.0,0.0,84,0.00,,---,0.00,VWS V14.01,2013-03-31 07:35:00,
2013-03-31 00:44:00,55.4,51.0,30.06,NE,45,0.0,1.1,85,0.00,,---,0.00,VWS V14.01,2013-03-31 07:44:00,
2013-03-31 00:50:00,55.4,51.3,30.09,North,0,0.0,0.0,86,0.00,,---,0.00,VWS V14.01,2013-03-31 07:50:00,
2013-03-31 00:59:00,55.4,51.3,30.09,ENE,68,0.0,0.0,86,0.00,,---,0.00,VWS V14.01,2013-03-31 07:59:00,
2013-03-31 01:04:00,55.4,51.6,30.06,ENE,68,0.0,0.0,87,0.00,,---,0.00,VWS V14.01,2013-03-31 08:04:00,
2013-03-31 01:10:00,55.4,51.6,30.06,ENE,68,0.0,2.5,87,0.00,,---,0.00,VWS V14.01,2013-03-31 08:10:00,
2013-03-31 01:20:00,55.4,51.9,30.06,ENE,68,0.0,0.0,88,0.00,,---,0.00,VWS V14.01,2013-03-31 08:20:00,
2013-03-31 01:25:00,55.4,51.9,30.06,ENE,68,0.0,0.0,88,0.00,,---,0.00,VWS V14.01,2013-03-31 08:25:00,
2013-03-31 01:35:00,55.4,52.2,30.06,ENE,68,0.0,2.9,89,0.00,,---,0.00,VWS V14.01,2013-03-31 08:35:00,
2013-03-31 01:40:00,55.4,52.2,30.06,WNW,292,0.0,1.1,89,0.00,,---,0.00,VWS V14.01,2013-03-31 08:40:00,
2013-03-31 01:49:00,55.4,52.2,30.09,NW,315,0.0,0.0,89,0.00,,---,0.00,VWS V14.01,2013-03-31 08:49:00,
2013-03-31 01:55:00,55.6,52.7,30.09,East,90,0.0,0.0,90,0.00,,---,0.00,VWS V14.01,2013-03-31 08:55:00,
2013-03-31 02:04:00,55.8,52.9,30.09,East,90,0.0,0.0,90,0.00,,---,0.00,VWS V14.01,2013-03-31 09:04:00,
2013-03-31 02:09:00,55.8,52.9,30.09,East,90,0.0,0.0,90,0.00,,---,0.00,VWS V14.01,2013-03-31 09:09:00,
2013-03-31 02:14:00,55.8,52.9,30.09,East,90,0.0,0.0,90,0.00,,---,0.00,VWS V14.01,2013-03-31 09:14:00,
2013-03-31 02:20:00,55.9,53.0,30.09,SSE,158,1.6,3.1,90,0.00,,---,0.00,VWS V14.01,2013-03-31 09:20:00,
2013-03-31 02:29:00,56.3,53.7,30.09,ESE,112,0.0,3.4,91,0.00,,---,0.00,VWS V14.01,2013-03-31 09:29:00,
2013-03-31 02:34:00,56.3,53.4,30.09,SW,225,0.0,1.1,90,0.00,,---,0.00,VWS V14.01,2013-03-31 09:34:00,
2013-03-31 02:44:00,56.3,53.4,30.09,South,180,0.0,2.0,90,0.00,,---,0.00,VWS V14.01,2013-03-31 09:44:00,
2013-03-31 02:55:00,56.5,53.6,30.12,SE,135,0.0,3.8,90,0.00,,---,0.00,VWS V14.01,2013-03-31 09:55:00,
2013-03-31 03:05:00,56.5,53.6,30.12,SSW,202,1.6,4.0,90,0.00,,---,0.00,VWS V14.01,2013-03-31 10:05:00,
2013-03-31 03:10:00,56.3,53.4,30.12,South,180,1.3,4.3,90,0.00,,---,0.00,VWS V14.01,2013-03-31 10:10:00,
2013-03-31 03:20:00,56.1,52.9,30.12,SSE,158,0.0,5.4,89,0.00,,---,0.00,VWS V14.01,2013-03-31 10:20:00,
2013-03-31 03:30:00,55.6,52.4,30.12,SSW,202,1.3,3.4,89,0.00,,---,0.00,VWS V14.01,2013-03-31 10:30:00,
2013-03-31 03:40:00,55.6,52.7,30.12,WSW,248,0.0,4.0,90,0.00,,---,0.00,VWS V14.01,2013-03-31 10:40:00,
2013-03-31 03:45:00,55.4,52.5,30.12,SSW,202,4.7,4.7,90,0.00,,---,0.00,VWS V14.01,2013-03-31 10:45:00,
2013-03-31 03:54:00,55.2,52.0,30.12,SSW,202,3.4,5.8,89,0.00,,---,0.00,VWS V14.01,2013-03-31 10:54:00,
2013-03-31 04:04:00,55.2,52.3,30.12,ENE,68,1.1,5.8,90,0.00,,---,0.00,VWS V14.01,2013-03-31 11:04:00,
2013-03-31 04:09:00,55.0,51.9,30.12,SSW,202,2.7,3.8,89,0.00,,---,0.00,VWS V14.01,2013-03-31 11:09:00,
2013-03-31 04:14:00,54.9,51.7,30.12,SSE,158,4.7,5.6,89,0.00,,---,0.00,VWS V14.01,2013-03-31 11:14:00,
2013-03-31 04:19:00,54.5,51.0,30.12,SSE,158,2.0,4.7,88,0.00,,---,0.00,VWS V14.01,2013-03-31 11:19:00,
2013-03-31 04:24:00,54.3,50.5,30.12,SE,135,0.0,5.4,87,0.00,,---,0.00,VWS V14.01,2013-03-31 11:24:00,
2013-03-31 04:30:00,54.1,50.4,30.12,WSW,248,1.3,2.9,87,0.00,,---,0.00,VWS V14.01,2013-03-31 11:30:00,
2013-03-31 04:40:00,53.4,49.7,30.12,NNE,22,0.0,2.0,87,0.00,,---,0.00,VWS V14.01,2013-03-31 11:40:00,
2013-03-31 04:50:00,52.7,49.0,30.12,NNE,22,0.0,0.0,87,0.00,,---,0.00,VWS V14.01,2013-03-31 11:50:00,
2013-03-31 04:55:00,52.2,48.4,30.12,NNE,22,0.0,0.0,87,0.00,,---,0.00,VWS V14.01,2013-03-31 11:55:00,
2013-03-31 05:05:00,51.6,48.2,30.12,SE,135,0.0,0.0,88,0.00,,---,0.00,VWS V14.01,2013-03-31 12:05:00,
2013-03-31 05:14:00,51.3,47.8,30.12,ENE,68,0.0,0.0,88,0.00,,---,0.00,VWS V14.01,2013-03-31 12:14:00,
2013-03-31 05:19:00,51.3,48.1,30.09,SSW,202,1.3,2.5,89,0.00,,---,0.00,VWS V14.01,2013-03-31 12:19:00,
2013-03-31 05:24:00,51.3,48.4,30.09,WNW,292,0.0,1.3,90,0.00,,---,0.00,VWS V14.01,2013-03-31 12:24:00,
2013-03-31 05:30:00,51.1,48.2,30.09,NNW,338,0.0,0.0,90,0.00,,---,0.00,VWS V14.01,2013-03-31 12:30:00,
2013-03-31 05:39:00,50.9,48.1,30.12,WSW,248,0.0,2.5,90,0.00,,---,0.00,VWS V14.01,2013-03-31 12:39:00,
2013-03-31 05:49:00,51.1,48.5,30.09,SW,225,0.0,2.0,91,0.00,,---,0.00,VWS V14.01,2013-03-31 12:49:00,
2013-03-31 05:55:00,50.9,48.1,30.09,SSE,158,0.9,0.9,90,0.00,,---,0.00,VWS V14.01,2013-03-31 12:55:00,
2013-03-31 06:04:00,50.4,47.5,30.12,North,0,1.6,2.2,90,0.00,,---,0.00,VWS V14.01,2013-03-31 13:04:00,
2013-03-31 06:09:00,50.4,47.8,30.12,North,0,1.1,1.6,91,0.00,,---,0.00,VWS V14.01,2013-03-31 13:09:00,
2013-03-31 06:14:00,50.5,48.0,30.12,North,0,2.2,2.5,91,0.00,,---,0.00,VWS V14.01,2013-03-31 13:14:00,
2013-03-31 06:24:00,50.7,48.5,30.09,NNE,22,0.0,0.0,92,0.00,,---,0.00,VWS V14.01,2013-03-31 13:24:00,
2013-03-31 06:29:00,50.7,48.5,30.09,NNE,22,0.0,0.0,92,0.00,,---,0.00,VWS V14.01,2013-03-31 13:29:00,
2013-03-31 06:39:00,51.1,48.8,30.12,East,90,0.0,2.0,92,0.00,,---,0.00,VWS V14.01,2013-03-31 13:39:00,
2013-03-31 06:49:00,51.6,49.7,30.09,NNW,338,2.0,2.0,93,0.00,,---,0.00,VWS V14.01,2013-03-31 13:49:00,
2013-03-31 06:55:00,51.6,49.4,30.09,North,0,2.5,2.5,92,0.00,,---,0.00,VWS V14.01,2013-03-31 13:55:00,
2013-03-31 07:00:00,51.8,49.5,30.09,NNE,22,2.9,2.9,92,0.00,,---,0.00,VWS V14.01,2013-03-31 14:00:00,
2013-03-31 07:04:00,51.8,49.5,30.12,North,0,1.6,3.8,92,0.00,,---,0.00,VWS V14.01,2013-03-31 14:04:00,
2013-03-31 07:14:00,51.6,49.1,30.12,ENE,68,0.0,2.0,91,0.00,,---,0.00,VWS V14.01,2013-03-31 14:14:00,
2013-03-31 07:24:00,51.4,48.6,30.12,NNE,22,0.0,1.3,90,0.00,,---,0.00,VWS V14.01,2013-03-31 14:24:00,
2013-03-31 07:34:00,51.4,48.6,30.12,NNE,22,0.0,0.0,90,0.00,,---,0.00,VWS V14.01,2013-03-31 14:34:00,
2013-03-31 07:39:00,51.6,48.8,30.12,NNE,22,1.1,2.0,90,0.00,,---,0.00,VWS V14.01,2013-03-31 14:39:00,
2013-03-31 07:49:00,53.1,50.5,30.12,NNE,22,0.9,1.1,91,0.00,,---,0.00,VWS V14.01,2013-03-31 14:49:00,
2013-03-31 07:55:00,53.4,50.9,30.12,NNE,22,0.0,1.1,91,0.00,,---,0.00,VWS V14.01,2013-03-31 14:55:00,
2013-03-31 08:04:00,54.5,51.3,30.12,NNE,22,0.0,0.0,89,0.00,,---,0.00,VWS V14.01,2013-03-31 15:04:00,
2013-03-31 08:10:00,55.0,51.9,30.12,ENE,68,0.0,1.1,89,0.00,,---,0.00,VWS V14.01,2013-03-31 15:10:00,
2013-03-31 08:14:00,55.6,51.8,30.12,ENE,68,2.2,2.9,87,0.00,,---,0.00,VWS V14.01,2013-03-31 15:14:00,
2013-03-31 08:24:00,56.8,52.1,30.12,ENE,68,2.0,3.6,84,0.00,,---,0.00,VWS V14.01,2013-03-31 15:24:00,
2013-03-31 08:34:00,58.5,52.3,30.12,ESE,112,2.0,2.9,80,0.00,,---,0.00,VWS V14.01,2013-03-31 15:34:00,
2013-03-31 08:44:00,59.7,51.1,30.12,SW,225,0.9,2.5,73,0.00,,---,0.00,VWS V14.01,2013-03-31 15:44:00,
2013-03-31 08:55:00,61.0,49.5,30.15,WSW,248,2.2,3.4,66,0.00,,---,0.00,VWS V14.01,2013-03-31 15:55:00,
2013-03-31 09:04:00,62.8,50.0,30.12,ESE,112,2.5,3.4,63,0.00,,---,0.00,VWS V14.01,2013-03-31 16:04:00,
2013-03-31 09:10:00,63.1,50.3,30.12,SSW,202,2.9,5.8,63,0.00,,---,0.00,VWS V14.01,2013-03-31 16:10:00,
2013-03-31 09:19:00,63.5,47.1,30.15,ESE,112,2.9,6.0,55,0.00,,---,0.00,VWS V14.01,2013-03-31 16:19:00,
2013-03-31 09:24:00,64.0,46.6,30.15,SSW,202,2.5,5.8,53,0.00,,---,0.00,VWS V14.01,2013-03-31 16:24:00,
2013-03-31 09:34:00,64.9,46.4,30.12,SSE,158,0.0,5.8,51,0.00,,---,0.00,VWS V14.01,2013-03-31 16:34:00,
2013-03-31 09:39:00,65.7,46.5,30.12,WNW,292,4.0,6.5,50,0.00,,---,0.00,VWS V14.01,2013-03-31 16:39:00,
2013-03-31 09:44:00,66.7,47.0,30.12,SE,135,3.6,4.0,49,0.00,,---,0.00,VWS V14.01,2013-03-31 16:44:00,
2013-03-31 09:55:00,66.6,45.7,30.15,ENE,68,0.0,7.6,47,0.00,,---,0.00,VWS V14.01,2013-03-31 16:55:00,
2013-03-31 10:04:00,66.9,44.9,30.12,SSE,158,6.0,7.6,45,0.00,,---,0.00,VWS V14.01,2013-03-31 17:04:00,
2013-03-31 10:10:00,67.6,45.0,30.12,SW,225,1.3,6.0,44,0.00,,---,0.00,VWS V14.01,2013-03-31 17:10:00,
2013-03-31 10:14:00,68.5,45.8,30.12,SSW,202,2.0,4.0,44,0.00,,---,0.00,VWS V14.01,2013-03-31 17:14:00,
2013-03-31 10:19:00,68.4,44.4,30.12,SE,135,5.8,7.2,42,0.00,,---,0.00,VWS V14.01,2013-03-31 17:19:00,
2013-03-31 10:30:00,68.7,44.1,30.12,SE,135,5.8,5.8,41,0.00,,---,0.00,VWS V14.01,2013-03-31 17:30:00,
2013-03-31 10:39:00,69.8,45.7,30.15,West,270,3.4,4.7,42,0.00,,---,0.00,VWS V14.01,2013-03-31 17:39:00,
2013-03-31 10:44:00,70.5,44.4,30.15,ENE,68,4.9,4.9,39,0.00,,---,0.00,VWS V14.01,2013-03-31 17:44:00,
2013-03-31 10:55:00,71.1,43.5,30.15,WSW,248,2.9,6.3,37,0.00,,---,0.00,VWS V14.01,2013-03-31 17:55:00,
2013-03-31 11:04:00,70.9,43.3,30.15,WSW,248,6.3,7.6,37,0.00,,---,0.00,VWS V14.01,2013-03-31 18:04:00,
2013-03-31 11:09:00,71.6,41.8,30.15,East,90,4.0,6.5,34,0.00,,---,0.00,VWS V14.01,2013-03-31 18:09:00,
2013-03-31 11:20:00,70.9,41.1,30.12,East,90,6.9,6.9,34,0.00,,---,0.00,VWS V14.01,2013-03-31 18:20:00,
2013-03-31 11:29:00,69.8,39.4,30.12,ESE,112,1.1,9.8,33,0.00,,---,0.00,VWS V14.01,2013-03-31 18:29:00,
2013-03-31 11:39:00,69.3,39.7,30.12,ESE,112,8.5,8.5,34,0.00,,---,0.00,VWS V14.01,2013-03-31 18:39:00,
2013-03-31 11:49:00,71.2,39.9,30.12,ENE,68,8.1,8.1,32,0.00,,---,0.00,VWS V14.01,2013-03-31 18:49:00,
2013-03-31 11:55:00,73.9,42.2,30.12,North,0,3.4,8.1,32,0.00,,---,0.00,VWS V14.01,2013-03-31 18:55:00,
2013-03-31 12:04:00,76.3,41.7,30.12,SSW,202,6.0,12.1,29,0.00,,---,0.00,VWS V14.01,2013-03-31 19:04:00,
2013-03-31 12:09:00,75.0,41.5,30.12,SSW,202,2.9,6.3,30,0.00,,---,0.00,VWS V14.01,2013-03-31 19:09:00,
2013-03-31 12:14:00,72.9,40.5,30.12,WSW,248,2.5,5.8,31,0.00,,---,0.00,VWS V14.01,2013-03-31 19:14:00,
2013-03-31 12:20:00,74.3,40.9,30.12,SSE,158,2.0,7.8,30,0.00,,---,0.00,VWS V14.01,2013-03-31 19:20:00,
2013-03-31 12:30:00,76.1,37.8,30.12,ENE,68,5.6,6.5,25,0.00,,---,0.00,VWS V14.01,2013-03-31 19:30:00,
2013-03-31 12:39:00,73.9,36.9,30.12,ENE,68,3.4,10.7,26,0.00,,---,0.00,VWS V14.01,2013-03-31 19:39:00,
2013-03-31 12:49:00,77.5,39.0,30.12,South,180,3.1,5.6,25,0.00,,---,0.00,VWS V14.01,2013-03-31 19:49:00,
2013-03-31 12:55:00,76.6,39.2,30.12,ENE,68,3.4,4.9,26,0.00,,---,0.00,VWS V14.01,2013-03-31 19:55:00,
2013-03-31 13:04:00,74.3,38.2,30.12,SW,225,3.6,4.0,27,0.00,,---,0.00,VWS V14.01,2013-03-31 20:04:00,
2013-03-31 13:14:00,72.7,38.6,30.12,WSW,248,2.5,7.2,29,0.00,,---,0.00,VWS V14.01,2013-03-31 20:14:00,
2013-03-31 13:24:00,72.3,40.0,30.12,SSW,202,3.4,4.9,31,0.00,,---,0.00,VWS V14.01,2013-03-31 20:24:00,
2013-03-31 13:29:00,72.0,39.7,30.12,SSW,202,1.6,6.5,31,0.00,,---,0.00,VWS V14.01,2013-03-31 20:29:00,
2013-03-31 13:34:00,74.7,42.0,30.12,WSW,248,5.4,5.4,31,0.00,,---,0.00,VWS V14.01,2013-03-31 20:34:00,
2013-03-31 13:44:00,71.6,39.4,30.12,SSW,202,3.1,5.8,31,0.00,,---,0.00,VWS V14.01,2013-03-31 20:44:00,
2013-03-31 13:49:00,69.8,39.4,30.09,WSW,248,3.8,7.4,33,0.00,,---,0.00,VWS V14.01,2013-03-31 20:49:00,
2013-03-31 13:55:00,67.8,40.6,30.09,SSE,158,3.1,6.0,37,0.00,,---,0.00,VWS V14.01,2013-03-31 20:55:00,
2013-03-31 14:04:00,66.7,45.3,30.09,SW,225,2.5,6.5,46,0.00,,---,0.00,VWS V14.01,2013-03-31 21:04:00,
2013-03-31 14:14:00,64.0,46.6,30.09,ENE,68,2.7,4.0,53,0.00,,---,0.00,VWS V14.01,2013-03-31 21:14:00,
2013-03-31 14:19:00,63.3,46.4,30.09,SSE,158,2.7,3.4,54,0.00,,---,0.00,VWS V14.01,2013-03-31 21:19:00,
2013-03-31 14:25:00,62.8,46.4,30.09,West,270,1.1,4.7,55,0.00,,---,0.00,VWS V14.01,2013-03-31 21:25:00,
2013-03-31 14:34:00,62.2,47.3,30.09,NW,315,1.6,5.4,58,0.00,,---,0.00,VWS V14.01,2013-03-31 21:34:00,
2013-03-31 14:40:00,63.7,50.4,30.09,WNW,292,2.2,4.7,62,0.00,,---,0.00,VWS V14.01,2013-03-31 21:40:00,
2013-03-31 14:50:00,66.6,51.8,30.09,SSW,202,1.6,4.9,59,0.00,,---,0.00,VWS V14.01,2013-03-31 21:50:00,
2013-03-31 14:55:00,66.9,50.2,30.09,NW,315,2.5,3.8,55,0.00,,---,0.00,VWS V14.01,2013-03-31 21:55:00,
2013-03-31 15:04:00,66.2,48.6,30.09,NNW,338,2.5,5.4,53,0.00,,---,0.00,VWS V14.01,2013-03-31 22:04:00,
2013-03-31 15:09:00,67.3,49.1,30.09,NNE,22,2.5,4.3,52,0.00,,---,0.00,VWS V14.01,2013-03-31 22:09:00,
2013-03-31 15:14:00,67.1,48.4,30.09,West,270,0.0,4.3,51,0.00,,---,0.00,VWS V14.01,2013-03-31 22:14:00,
2013-03-31 15:19:00,67.1,47.3,30.09,West,270,2.7,5.4,49,0.00,,---,0.00,VWS V14.01,2013-03-31 22:19:00,
2013-03-31 15:25:00,66.6,46.8,30.09,SW,225,3.8,3.8,49,0.00,,---,0.00,VWS V14.01,2013-03-31 22:25:00,
2013-03-31 15:35:00,66.4,47.2,30.09,SSW,202,1.3,3.1,50,0.00,,---,0.00,VWS V14.01,2013-03-31 22:35:00,
2013-03-31 15:44:00,66.2,47.0,30.09,WSW,248,1.6,4.3,50,0.00,,---,0.00,VWS V14.01,2013-03-31 22:44:00,
2013-03-31 15:50:00,66.2,47.6,30.09,WSW,248,0.0,3.6,51,0.00,,---,0.00,VWS V14.01,2013-03-31 22:50:00,
2013-03-31 15:55:00,66.0,47.4,30.09,SW,225,2.9,3.1,51,0.00,,---,0.00,VWS V14.01,2013-03-31 22:55:00,
2013-03-31 16:04:00,65.5,46.9,30.09,SSW,202,3.1,5.6,51,0.00,,---,0.00,VWS V14.01,2013-03-31 23:04:00,
2013-03-31 16:09:00,64.9,46.9,30.09,SSW,202,0.9,4.7,52,0.00,,---,0.00,VWS V14.01,2013-03-31 23:09:00,
2013-03-31 16:14:00,64.6,47.1,30.09,West,270,0.9,3.1,53,0.00,,---,0.00,VWS V14.01,2013-03-31 23:14:00,
2013-03-31 16:19:00,64.6,47.1,30.06,SW,225,1.1,3.8,53,0.00,,---,0.00,VWS V14.01,2013-03-31 23:19:00,
2013-03-31 16:24:00,64.4,46.4,30.06,West,270,0.0,2.9,52,0.00,,---,0.00,VWS V14.01,2013-03-31 23:24:00,
2013-03-31 16:34:00,64.8,46.2,30.06,WSW,248,6.0,6.0,51,0.00,,---,0.00,VWS V14.01,2013-03-31 23:34:00,
2013-03-31 16:39:00,64.4,45.9,30.06,SSW,202,2.9,6.0,51,0.00,,---,0.00,VWS V14.01,2013-03-31 23:39:00,
2013-03-31 16:44:00,65.3,47.2,30.06,SSW,202,0.0,3.6,52,0.00,,---,0.00,VWS V14.01,2013-03-31 23:44:00,
2013-03-31 16:49:00,66.0,47.4,30.06,NW,315,0.0,2.7,51,0.00,,---,0.00,VWS V14.01,2013-03-31 23:49:00,
2013-03-31 16:55:00,65.8,46.2,30.06,WNW,292,0.0,6.0,49,0.00,,---,0.00,VWS V14.01,2013-03-31 23:55:00,
2013-03-31 17:04:00,65.5,44.2,30.06,SSW,202,4.3,5.6,46,0.00,,---,0.00,VWS V14.01,2013-04-01 00:04:00,
2013-03-31 17:09:00,65.7,44.3,30.06,SSW,202,2.2,6.0,46,0.00,,---,0.00,VWS V14.01,2013-04-01 00:09:00,
2013-03-31 17:14:00,66.0,44.7,30.06,NNW,338,5.6,5.6,46,0.00,,---,0.00,VWS V14.01,2013-04-01 00:14:00,
2013-03-31 17:19:00,66.0,44.1,30.03,West,270,0.0,5.6,45,0.00,,---,0.00,VWS V14.01,2013-04-01 00:19:00,
2013-03-31 17:24:00,66.7,44.2,30.03,SSW,202,3.8,4.9,44,0.00,,---,0.00,VWS V14.01,2013-04-01 00:24:00,
2013-03-31 17:29:00,66.7,44.2,30.03,SSW,202,4.3,4.3,44,0.00,,---,0.00,VWS V14.01,2013-04-01 00:29:00,
2013-03-31 17:34:00,67.8,45.1,30.06,NW,315,1.3,5.4,44,0.00,,---,0.00,VWS V14.01,2013-04-01 00:34:00,
2013-03-31 17:44:00,69.1,45.0,30.06,South,180,2.2,5.4,42,0.00,,---,0.00,VWS V14.01,2013-04-01 00:44:00,
2013-03-31 17:49:00,71.1,46.8,30.06,SSW,202,1.1,5.8,42,0.00,,---,0.00,VWS V14.01,2013-04-01 00:49:00,
2013-03-31 17:55:00,72.0,45.7,30.06,West,270,0.9,4.7,39,0.00,,---,0.00,VWS V14.01,2013-04-01 00:55:00,
2013-03-31 18:04:00,68.0,42.8,30.06,NNW,338,0.0,4.3,40,0.00,,---,0.00,VWS V14.01,2013-04-01 01:04:00,
2013-03-31 18:09:00,66.4,42.6,30.06,SW,225,1.6,4.9,42,0.00,,---,0.00,VWS V14.01,2013-04-01 01:09:00,
2013-03-31 18:14:00,65.5,43.6,30.06,NNW,338,3.1,3.8,45,0.00,,---,0.00,VWS V14.01,2013-04-01 01:14:00,
2013-03-31 18:19:00,64.4,43.2,30.06,West,270,1.6,3.4,46,0.00,,---,0.00,VWS V14.01,2013-04-01 01:19:00,
2013-03-31 18:24:00,63.9,43.8,30.06,West,270,1.1,3.4,48,0.00,,---,0.00,VWS V14.01,2013-04-01 01:24:00,
2013-03-31 18:29:00,62.8,43.9,30.06,NNE,22,2.0,6.7,50,0.00,,---,0.00,VWS V14.01,2013-04-01 01:29:00,
2013-03-31 18:34:00,62.2,44.4,30.06,NNE,22,2.0,3.6,52,0.00,,---,0.00,VWS V14.01,2013-04-01 01:34:00,
2013-03-31 18:39:00,61.7,44.9,30.06,NNW,338,1.3,3.4,54,0.00,,---,0.00,VWS V14.01,2013-04-01 01:39:00,
2013-03-31 18:49:00,61.0,45.7,30.06,WSW,248,0.9,3.6,57,0.00,,---,0.00,VWS V14.01,2013-04-01 01:49:00,
2013-03-31 18:55:00,60.6,45.8,30.06,WSW,248,0.0,2.9,58,0.00,,---,0.00,VWS V14.01,2013-04-01 01:55:00,
2013-03-31 19:04:00,60.1,46.6,30.06,NNW,338,3.6,5.6,61,0.00,,---,0.00,VWS V14.01,2013-04-01 02:04:00,
2013-03-31 19:09:00,59.9,46.0,30.06,SSW,202,1.3,5.6,60,0.00,,---,0.00,VWS V14.01,2013-04-01 02:09:00,
2013-03-31 19:14:00,59.7,46.3,30.06,SW,225,3.4,4.9,61,0.00,,---,0.00,VWS V14.01,2013-04-01 02:14:00,
2013-03-31 19:19:00,59.5,45.7,30.06,WSW,248,2.5,4.3,60,0.00,,---,0.00,VWS V14.01,2013-04-01 02:19:00,
2013-03-31 19:24:00,59.4,45.9,30.06,SSW,202,0.0,5.4,61,0.00,,---,0.00,VWS V14.01,2013-04-01 02:24:00,
2013-03-31 19:30:00,59.2,45.3,30.06,ENE,68,0.0,2.0,60,0.00,,---,0.00,VWS V14.01,2013-04-01 02:30:00,
2013-03-31 19:39:00,58.8,46.3,30.09,NW,315,3.1,3.4,63,0.00,,---,0.00,VWS V14.01,2013-04-01 02:39:00,
2013-03-31 19:44:00,58.5,46.3,30.09,NNE,22,0.0,4.9,64,0.00,,---,0.00,VWS V14.01,2013-04-01 02:44:00,
2013-03-31 19:55:00,57.9,46.2,30.09,West,270,0.0,0.9,65,0.00,,---,0.00,VWS V14.01,2013-04-01 02:55:00,
2013-03-31 20:04:00,57.2,46.8,30.09,WSW,248,0.0,1.3,68,0.00,,---,0.00,VWS V14.01,2013-04-01 03:04:00,
2013-03-31 20:09:00,57.0,47.3,30.09,NW,315,0.0,2.5,70,0.00,,---,0.00,VWS V14.01,2013-04-01 03:09:00,
2013-03-31 20:14:00,56.7,47.4,30.09,NW,315,0.0,0.0,71,0.00,,---,0.00,VWS V14.01,2013-04-01 03:14:00,
2013-03-31 20:24:00,56.3,47.8,30.09,North,0,0.0,1.6,73,0.00,,---,0.00,VWS V14.01,2013-04-01 03:24:00,
2013-03-31 20:29:00,56.1,47.6,30.09,NNW,338,1.1,1.6,73,0.00,,---,0.00,VWS V14.01,2013-04-01 03:29:00,
2013-03-31 20:35:00,55.9,47.8,30.09,North,0,0.0,1.1,74,0.00,,---,0.00,VWS V14.01,2013-04-01 03:35:00,
2013-03-31 20:44:00,55.8,48.7,30.09,NNW,338,0.0,0.0,77,0.00,,---,0.00,VWS V14.01,2013-04-01 03:44:00,
2013-03-31 20:55:00,55.6,49.5,30.09,NE,45,0.0,1.1,80,0.00,,---,0.00,VWS V14.01,2013-04-01 03:55:00,
2013-03-31 21:04:00,55.6,49.8,30.12,NNW,338,0.0,2.5,81,0.00,,---,0.00,VWS V14.01,2013-04-01 04:04:00,
2013-03-31 21:09:00,55.6,49.8,30.12,North,0,0.0,0.0,81,0.00,,---,0.00,VWS V14.01,2013-04-01 04:09:00,
2013-03-31 21:14:00,55.4,49.7,30.12,North,0,0.0,0.0,81,0.00,,---,0.00,VWS V14.01,2013-04-01 04:14:00,
2013-03-31 21:19:00,55.2,49.8,30.12,North,0,0.0,2.0,82,0.00,,---,0.00,VWS V14.01,2013-04-01 04:19:00,
2013-03-31 21:24:00,55.2,50.2,30.12,NNW,338,0.0,1.3,83,0.00,,---,0.00,VWS V14.01,2013-04-01 04:24:00,
2013-03-31 21:29:00,55.2,50.2,30.12,NNE,22,0.0,0.9,83,0.00,,---,0.00,VWS V14.01,2013-04-01 04:29:00,
2013-03-31 21:34:00,55.4,50.3,30.12,North,0,1.1,2.5,83,0.00,,---,0.00,VWS V14.01,2013-04-01 04:34:00,
2013-03-31 21:39:00,55.4,50.3,30.12,ENE,68,0.0,1.1,83,0.00,,---,0.00,VWS V14.01,2013-04-01 04:39:00,
2013-03-31 21:44:00,55.2,50.5,30.12,NE,45,0.0,0.0,84,0.00,,---,0.00,VWS V14.01,2013-04-01 04:44:00,
2013-03-31 21:49:00,55.2,50.8,30.09,NNE,22,0.0,0.0,85,0.00,,---,0.00,VWS V14.01,2013-04-01 04:49:00,
2013-03-31 21:54:00,55.2,50.8,30.09,NNE,22,0.0,0.0,85,0.00,,---,0.00,VWS V14.01,2013-04-01 04:54:00,
2013-03-31 22:04:00,55.0,50.3,30.12,NW,315,0.0,1.6,84,0.00,,---,0.00,VWS V14.01,2013-04-01 05:04:00,
2013-03-31 22:09:00,55.0,50.6,30.12,NW,315,0.0,1.3,85,0.00,,---,0.00,VWS V14.01,2013-04-01 05:09:00,
2013-03-31 22:14:00,55.0,50.6,30.12,NNE,22,0.0,1.1,85,0.00,,---,0.00,VWS V14.01,2013-04-01 05:14:00,
2013-03-31 22:19:00,55.0,50.6,30.12,NNE,22,0.0,0.0,85,0.00,,---,0.00,VWS V14.01,2013-04-01 05:19:00,
2013-03-31 22:29:00,55.0,50.9,30.12,NE,45,1.1,1.1,86,0.04,,---,0.04,VWS V14.01,2013-04-01 05:29:00,
2013-03-31 22:34:00,55.0,50.9,30.12,ENE,68,2.0,2.2,86,0.04,,---,0.04,VWS V14.01,2013-04-01 05:34:00,
2013-03-31 22:39:00,54.9,51.4,30.12,East,90,0.0,3.8,88,0.04,,---,0.04,VWS V14.01,2013-04-01 05:39:00,
2013-03-31 22:44:00,54.9,51.4,30.12,NE,45,1.1,2.2,88,0.04,,---,0.04,VWS V14.01,2013-04-01 05:44:00,
2013-03-31 22:49:00,54.7,51.5,30.12,NE,45,0.0,2.2,89,0.04,,---,0.04,VWS V14.01,2013-04-01 05:49:00,
2013-03-31 22:54:00,54.7,51.5,30.12,NE,45,0.0,0.9,89,0.04,,---,0.04,VWS V14.01,2013-04-01 05:54:00,
2013-03-31 22:59:00,54.7,51.5,30.12,ESE,112,0.0,0.0,89,0.04,,---,0.04,VWS V14.01,2013-04-01 05:59:00,
2013-03-31 23:09:00,54.7,51.5,30.12,NE,45,0.0,0.0,89,0.04,,---,0.04,VWS V14.01,2013-04-01 06:09:00,
2013-03-31 23:14:00,54.7,51.5,30.12,ENE,68,0.0,0.0,89,0.04,,---,0.04,VWS V14.01,2013-04-01 06:14:00,
2013-03-31 23:19:00,54.7,51.5,30.09,ENE,68,0.0,0.0,89,0.04,,---,0.04,VWS V14.01,2013-04-01 06:19:00,
2013-03-31 23:24:00,54.5,51.3,30.09,ESE,112,0.0,0.0,89,0.04,,---,0.04,VWS V14.01,2013-04-01 06:24:00,
2013-03-31 23:29:00,54.5,51.6,30.09,ESE,112,1.3,2.5,90,0.04,,---,0.04,VWS V14.01,2013-04-01 06:29:00,
2013-03-31 23:39:00,54.5,51.9,30.12,ENE,68,0.0,2.2,91,0.04,,---,0.08,VWS V14.01,2013-04-01 06:39:00,
2013-03-31 23:44:00,54.5,51.9,30.12,SSE,158,2.9,2.9,91,0.04,,---,0.08,VWS V14.01,2013-04-01 06:44:00,
2013-03-31 23:49:00,54.5,51.9,30.09,East,90,0.0,3.8,91,0.04,,---,0.08,VWS V14.01,2013-04-01 06:49:00,
2013-03-31 23:54:00,54.5,51.9,30.09,East,90,0.0,3.8,91,0.04,,---,0.08,VWS V14.01,2013-04-01 06:54:00,